createdAt,value
2022-08-14T00:02:27.131Z,4.68
2022-08-14T00:04:55.684Z,4.60
2022-08-14T00:07:23.067Z,4.53
2022-08-14T00:10:01.930Z,4.50
2022-08-14T00:12:40.451Z,4.50
2022-08-14T00:15:17.283Z,4.57
2022-08-14T00:17:47.900Z,4.57
2022-08-14T00:20:30.981Z,4.30
2022-08-14T00:23:11.850Z,4.47
2022-08-14T00:25:58.635Z,4.10
2022-08-14T00:28:32.787Z,4.38
2022-08-14T00:31:06.589Z,4.85
2022-08-14T00:33:50.838Z,4.20
2022-08-14T00:36:39.352Z,4.30
2022-08-14T00:39:14.393Z,4.30
2022-08-14T00:41:42.673Z,4.10
2022-08-14T00:44:10.859Z,4.55
2022-08-14T00:46:39.180Z,4.32
2022-08-14T00:49:11.509Z,4.10
2022-08-14T00:51:44.710Z,4.43
2022-08-14T00:54:21.176Z,4.05
2022-08-14T00:56:55.604Z,4.30
2022-08-14T00:59:28.797Z,4.40
2022-08-14T01:01:58.964Z,4.30
2022-08-14T01:04:52.715Z,3.90
2022-08-14T01:09:53.834Z,3.72
2022-08-14T01:12:27.166Z,4.13
2022-08-14T01:14:58.933Z,3.97
2022-08-14T01:17:49.472Z,4.25
2022-08-14T01:20:40.061Z,3.88
2022-08-14T01:23:16.613Z,4.20
2022-08-14T01:25:51.554Z,4.05
2022-08-14T01:28:47.087Z,3.88
2022-08-14T01:31:17.925Z,4.07
2022-08-14T01:33:59.507Z,4.05
2022-08-14T01:36:36.901Z,3.63
2022-08-14T01:39:13.585Z,3.83
2022-08-14T01:41:49.305Z,3.85
2022-08-14T01:44:32.369Z,3.92
2022-08-14T01:47:21.365Z,3.90
2022-08-14T01:49:59.447Z,3.83
2022-08-14T01:52:57.643Z,3.83
2022-08-14T01:55:21.711Z,3.58
2022-08-14T01:58:01.483Z,3.63
2022-08-14T02:00:39.702Z,3.83
2022-08-14T02:03:07.399Z,3.80
2022-08-14T02:05:38.425Z,3.80
2022-08-14T02:08:09.526Z,3.70
2022-08-14T02:10:47.402Z,3.60
2022-08-14T02:13:17.368Z,3.53
2022-08-14T02:15:48.793Z,3.50
2022-08-14T02:18:18.620Z,3.58
2022-08-14T02:20:47.792Z,3.50
2022-08-14T02:23:29.154Z,3.50
2022-08-14T02:26:24.272Z,3.90
2022-08-14T02:28:57.295Z,3.80
2022-08-14T02:31:42.083Z,3.70
2022-08-14T02:34:22.209Z,3.45
2022-08-14T02:37:06.877Z,3.72
2022-08-14T02:39:38.541Z,3.80
2022-08-14T02:42:13.084Z,3.50
2022-08-14T02:44:49.354Z,3.40
2022-08-14T02:47:19.281Z,3.65
2022-08-14T02:49:50.603Z,3.50
2022-08-14T02:52:56.625Z,3.30
2022-08-14T02:55:10.317Z,3.38
2022-08-14T02:57:40.743Z,3.63
2022-08-14T03:00:12.805Z,3.72
2022-08-14T03:02:55.934Z,3.60
2022-08-14T03:05:35.806Z,3.30
2022-08-14T03:08:15.346Z,3.15
2022-08-14T03:10:48.686Z,3.60
2022-08-14T03:13:19.060Z,3.30
2022-08-14T03:15:50.968Z,3.30
2022-08-14T03:18:31.828Z,3.20
2022-08-14T03:21:02.496Z,3.35
2022-08-14T03:23:34.252Z,3.05
2022-08-14T03:26:07.500Z,3.25
2022-08-14T03:28:36.820Z,2.92
2022-08-14T03:31:08.336Z,3.28
2022-08-14T03:33:41.574Z,2.70
2022-08-14T03:37:37.889Z,3.05
2022-08-14T03:39:13.384Z,3.25
2022-08-14T03:41:50.209Z,3.03
2022-08-14T03:45:19.169Z,2.83
2022-08-14T03:47:05.514Z,2.88
2022-08-14T03:49:33.966Z,2.90
2022-08-14T03:52:17.788Z,2.97
2022-08-14T03:54:53.283Z,3.15
2022-08-14T03:57:22.713Z,2.85
2022-08-14T03:59:51.399Z,3.13
2022-08-14T04:02:32.492Z,2.80
2022-08-14T04:05:11.922Z,2.92
2022-08-14T04:08:00.506Z,2.80
2022-08-14T04:10:32.613Z,3.25
2022-08-14T04:13:03.614Z,2.80
2022-08-14T04:15:55.959Z,2.80
2022-08-14T04:18:22.425Z,2.70
2022-08-14T04:20:55.024Z,2.70
2022-08-14T04:23:29.557Z,2.70
2022-08-14T04:26:02.453Z,2.85
2022-08-14T04:29:07.549Z,3.00
2022-08-14T04:31:25.022Z,2.85
2022-08-14T04:34:07.911Z,2.70
2022-08-14T04:36:55.782Z,2.53
2022-08-14T04:39:46.173Z,2.38
2022-08-14T04:42:32.642Z,2.67
2022-08-14T04:45:00.653Z,2.70
2022-08-14T04:47:53.656Z,2.50
2022-08-14T04:50:33.639Z,2.55
2022-08-14T04:53:05.362Z,2.70
2022-08-14T04:55:33.841Z,2.30
2022-08-14T04:58:01.062Z,2.35
2022-08-14T05:00:29.745Z,2.40
2022-08-14T05:02:57.794Z,2.42
2022-08-14T05:05:25.626Z,2.63
2022-08-14T05:08:01.117Z,2.63
2022-08-14T05:10:32.396Z,2.50
2022-08-14T05:13:13.281Z,2.65
2022-08-14T05:15:42.941Z,2.60
2022-08-14T05:18:17.556Z,2.42
2022-08-14T05:21:57.725Z,2.53
2022-08-14T05:23:56.874Z,2.40
2022-08-14T05:26:24.521Z,2.40
2022-08-14T05:28:52.064Z,2.20
2022-08-14T05:31:20.615Z,2.50
2022-08-14T05:33:56.857Z,2.35
2022-08-14T05:36:25.489Z,2.40
2022-08-14T05:38:55.352Z,2.50
2022-08-14T05:41:22.825Z,2.50
2022-08-14T05:43:51.107Z,2.30
2022-08-14T05:46:23.290Z,2.50
2022-08-14T05:48:57.265Z,2.20
2022-08-14T05:51:28.674Z,2.13
2022-08-14T05:54:10.013Z,2.17
2022-08-14T05:56:41.185Z,2.30
2022-08-14T05:59:09.324Z,2.10
2022-08-14T06:01:38.619Z,2.20
2022-08-14T06:04:06.178Z,2.20
2022-08-14T06:06:38.431Z,2.35
2022-08-14T06:09:09.758Z,2.20
2022-08-14T06:11:38.230Z,2.35
2022-08-14T06:14:12.362Z,2.50
2022-08-14T06:16:48.607Z,2.13
2022-08-14T06:19:18.270Z,2.22
2022-08-14T06:21:45.969Z,2.40
2022-08-14T06:24:18.858Z,2.33
2022-08-14T06:26:54.427Z,2.05
2022-08-14T06:29:33.472Z,1.90
2022-08-14T06:32:37.941Z,2.17
2022-08-14T06:35:04.594Z,2.65
2022-08-14T06:37:49.057Z,2.28
2022-08-14T06:40:27.323Z,2.20
2022-08-14T06:43:08.647Z,1.95
2022-08-14T06:45:38.713Z,2.05
2022-08-14T06:48:21.485Z,2.50
2022-08-14T06:50:49.697Z,2.40
2022-08-14T06:53:20.053Z,2.50
2022-08-14T06:55:58.179Z,2.15
2022-08-14T06:58:31.271Z,2.38
2022-08-14T07:01:26.814Z,2.20
2022-08-14T07:04:22.886Z,2.35
2022-08-14T07:06:54.832Z,2.10
2022-08-14T07:09:43.647Z,2.08
2022-08-14T07:12:52.215Z,2.28
2022-08-14T07:15:05.314Z,2.30
2022-08-14T07:17:34.448Z,2.00
2022-08-14T07:20:07.449Z,2.00
2022-08-14T07:22:56.012Z,2.00
2022-08-14T07:25:32.291Z,2.40
2022-08-14T07:28:01.567Z,2.47
2022-08-14T07:30:34.514Z,2.25
2022-08-14T07:33:03.748Z,2.40
2022-08-14T07:35:42.997Z,2.15
2022-08-14T07:38:21.805Z,1.85
2022-08-14T07:40:52.836Z,2.45
2022-08-14T07:43:21.862Z,2.13
2022-08-14T07:45:50.798Z,2.45
2022-08-14T07:48:19.411Z,3.25
2022-08-14T07:50:56.188Z,3.45
2022-08-14T07:53:29.568Z,2.97
2022-08-14T07:56:21.682Z,2.83
2022-08-14T07:58:51.315Z,2.28
2022-08-14T08:01:20.043Z,2.50
2022-08-14T08:03:51.862Z,2.72
2022-08-14T08:06:25.980Z,2.40
2022-08-14T08:09:01.476Z,2.47
2022-08-14T08:11:37.440Z,2.92
2022-08-14T08:14:10.916Z,2.55
2022-08-14T08:16:47.559Z,2.33
2022-08-14T08:21:47.610Z,2.55
2022-08-14T08:24:19.730Z,2.50
2022-08-14T08:26:50.728Z,2.20
2022-08-14T08:29:28.979Z,2.63
2022-08-14T08:32:01.888Z,2.30
2022-08-14T08:34:46.998Z,2.15
2022-08-14T08:37:15.417Z,2.00
2022-08-14T08:40:03.144Z,2.22
2022-08-14T08:42:52.061Z,2.03
2022-08-14T08:45:23.607Z,2.10
2022-08-14T08:47:51.993Z,2.42
2022-08-14T08:50:31.607Z,2.28
2022-08-14T08:53:02.078Z,2.38
2022-08-14T08:55:37.801Z,2.55
2022-08-14T08:58:16.032Z,2.28
2022-08-14T09:00:48.850Z,2.20
2022-08-14T09:03:21.869Z,2.15
2022-08-14T09:05:54.448Z,2.25
2022-08-14T09:08:32.807Z,2.10
2022-08-14T09:11:19.213Z,2.10
2022-08-14T09:13:53.172Z,2.20
2022-08-14T09:16:23.650Z,2.33
2022-08-14T09:18:53.532Z,1.80
2022-08-14T09:21:24.040Z,2.00
2022-08-14T09:24:29.037Z,2.20
2022-08-14T09:26:49.113Z,2.10
2022-08-14T09:29:17.950Z,1.90
2022-08-14T09:31:56.831Z,2.10
2022-08-14T09:34:58.472Z,2.00
2022-08-14T09:37:49.622Z,2.00
2022-08-14T09:40:56.291Z,2.40
2022-08-14T09:43:55.349Z,2.13
2022-08-14T09:46:27.868Z,2.00
2022-08-14T09:49:03.925Z,2.30
2022-08-14T09:51:44.734Z,2.00
2022-08-14T09:54:22.838Z,2.08
2022-08-14T09:56:57.494Z,2.25
2022-08-14T09:59:33.498Z,2.25
2022-08-14T10:02:07.257Z,2.20
2022-08-14T10:04:42.379Z,1.88
2022-08-14T10:07:13.697Z,2.05
2022-08-14T10:09:59.915Z,2.08
2022-08-14T10:12:44.871Z,2.63
2022-08-14T10:15:17.828Z,2.75
2022-08-14T10:17:46.578Z,2.17
2022-08-14T10:20:40.428Z,2.40
2022-08-14T10:23:20.957Z,2.10
2022-08-14T10:25:52.927Z,2.13
2022-08-14T10:29:03.534Z,2.10
2022-08-14T10:31:40.224Z,2.00
2022-08-14T10:34:14.168Z,2.00
2022-08-14T10:36:47.755Z,2.13
2022-08-14T10:39:20.369Z,2.05
2022-08-14T10:41:54.020Z,2.30
2022-08-14T10:47:41.288Z,2.10
2022-08-14T10:50:00.584Z,2.15
2022-08-14T10:52:31.914Z,2.00
2022-08-14T10:55:09.166Z,2.40
2022-08-14T10:57:59.867Z,2.05
2022-08-14T11:00:30.318Z,2.00
2022-08-14T11:03:10.980Z,2.10
2022-08-14T11:05:55.523Z,2.10
2022-08-14T11:08:34.252Z,2.00
2022-08-14T11:11:06.097Z,2.35
2022-08-14T11:13:33.939Z,2.28
2022-08-14T11:16:02.769Z,2.05
2022-08-14T11:18:39.879Z,2.10
2022-08-14T11:21:09.857Z,2.13
2022-08-14T11:23:41.238Z,1.95
2022-08-14T11:28:47.892Z,2.15
2022-08-14T11:31:24.346Z,2.10
2022-08-14T11:33:58.480Z,2.10
2022-08-14T11:36:35.259Z,2.05
2022-08-14T11:39:34.374Z,2.17
2022-08-14T11:43:07.984Z,2.50
2022-08-14T11:45:11.194Z,2.85
2022-08-14T11:48:13.537Z,2.22
2022-08-14T11:50:37.062Z,2.42
2022-08-14T11:53:07.746Z,2.60
2022-08-14T11:55:38.280Z,2.40
2022-08-14T11:58:11.292Z,2.58
2022-08-14T12:00:50.232Z,2.58
2022-08-14T12:03:37.711Z,2.40
2022-08-14T12:06:09.514Z,2.20
2022-08-14T12:09:00.043Z,2.67
2022-08-14T12:11:44.251Z,2.30
2022-08-14T12:14:31.067Z,2.30
2022-08-14T12:17:11.911Z,2.47
2022-08-14T12:19:56.856Z,2.97
2022-08-14T12:22:38.232Z,2.70
2022-08-14T12:25:11.521Z,2.60
2022-08-14T12:27:52.892Z,2.50
2022-08-14T12:30:39.844Z,2.58
2022-08-14T12:33:35.581Z,3.20
2022-08-14T12:36:08.269Z,2.77
2022-08-14T12:38:45.092Z,2.75
2022-08-14T12:41:21.225Z,2.90
2022-08-14T12:44:02.067Z,2.60
2022-08-14T12:46:32.316Z,2.60
2022-08-14T12:49:06.714Z,2.60
2022-08-14T12:51:35.739Z,3.00
2022-08-14T12:54:27.159Z,2.75
2022-08-14T12:57:05.134Z,2.35
2022-08-14T12:59:37.273Z,2.67
2022-08-14T13:02:26.147Z,2.90
2022-08-14T13:04:56.789Z,3.03
2022-08-14T13:07:32.827Z,3.20
2022-08-14T13:10:33.638Z,2.95
2022-08-14T13:13:12.701Z,3.20
2022-08-14T13:15:40.531Z,3.35
2022-08-14T13:18:10.672Z,2.97
2022-08-14T13:20:44.147Z,3.17
2022-08-14T13:23:30.602Z,3.30
2022-08-14T13:25:59.829Z,2.55
2022-08-14T13:28:33.408Z,2.92
2022-08-14T13:31:08.912Z,3.05
2022-08-14T13:33:40.502Z,3.30
2022-08-14T13:36:11.007Z,3.58
2022-08-14T13:38:53.759Z,2.57
2022-08-14T13:41:31.780Z,3.13
2022-08-14T13:44:04.231Z,3.10
2022-08-14T13:46:31.519Z,2.67
2022-08-14T13:49:00.106Z,2.88
2022-08-14T13:51:32.224Z,2.92
2022-08-14T13:54:10.373Z,2.90
2022-08-14T13:56:42.205Z,3.40
2022-08-14T13:59:10.325Z,2.90
2022-08-14T14:01:43.929Z,2.90
2022-08-14T14:04:19.420Z,3.33
2022-08-14T14:06:49.841Z,2.72
2022-08-14T14:09:32.399Z,2.90
2022-08-14T14:12:37.286Z,3.03
2022-08-14T14:15:04.839Z,2.95
2022-08-14T14:17:35.119Z,2.97
2022-08-14T14:20:06.958Z,2.80
2022-08-14T14:23:02.918Z,3.00
2022-08-14T14:25:46.388Z,3.03
2022-08-14T14:28:16.634Z,3.20
2022-08-14T14:30:54.612Z,3.20
2022-08-14T14:36:21.403Z,2.70
2022-08-14T14:38:56.258Z,3.15
2022-08-14T14:41:26.001Z,3.33
2022-08-14T14:43:54.222Z,3.28
2022-08-14T14:46:36.824Z,3.20
2022-08-14T14:49:07.790Z,3.27
2022-08-14T14:51:41.865Z,3.33
2022-08-14T14:54:13.108Z,3.95
2022-08-14T14:56:51.687Z,3.72
2022-08-14T14:59:21.556Z,4.32
2022-08-14T15:01:50.624Z,4.38
2022-08-14T15:04:20.843Z,4.40
2022-08-14T15:06:50.161Z,4.65
2022-08-14T15:09:21.048Z,4.85
2022-08-14T15:11:52.386Z,4.53
2022-08-14T15:14:55.433Z,4.60
2022-08-14T15:17:08.827Z,4.88
2022-08-14T15:19:37.940Z,4.63
2022-08-14T15:22:07.658Z,4.40
2022-08-14T15:24:39.942Z,4.75
2022-08-14T15:27:09.371Z,4.07
2022-08-14T15:29:43.140Z,4.03
2022-08-14T15:32:10.947Z,4.13
2022-08-14T15:34:45.605Z,3.80
2022-08-14T15:37:19.278Z,4.00
2022-08-14T15:39:46.735Z,4.07
2022-08-14T15:42:17.081Z,3.80
2022-08-14T15:44:58.372Z,3.88
2022-08-14T15:47:35.244Z,3.95
2022-08-14T15:50:09.643Z,4.00
2022-08-14T15:52:37.617Z,3.90
2022-08-14T15:55:08.579Z,4.30
2022-08-14T15:57:37.492Z,4.35
2022-08-14T16:00:40.553Z,4.18
2022-08-14T16:03:16.523Z,4.28
2022-08-14T16:05:45.807Z,4.00
2022-08-14T16:08:28.667Z,4.28
2022-08-14T16:10:59.158Z,3.95
2022-08-14T16:13:39.529Z,4.10
2022-08-14T16:16:48.946Z,4.60
2022-08-14T16:19:01.039Z,4.45
2022-08-14T16:21:32.023Z,4.10
2022-08-14T16:24:00.795Z,4.20
2022-08-14T16:26:29.105Z,4.70
2022-08-14T16:29:09.358Z,4.90
2022-08-14T16:31:37.117Z,4.28
2022-08-14T16:34:43.741Z,3.70
2022-08-14T16:36:57.275Z,4.38
2022-08-14T16:39:25.667Z,4.40
2022-08-14T16:41:59.437Z,4.95
2022-08-14T16:44:36.544Z,5.15
2022-08-14T16:47:05.757Z,4.88
2022-08-14T16:50:04.324Z,5.10
2022-08-14T16:52:25.747Z,5.03
2022-08-14T16:55:13.854Z,4.93
2022-08-14T16:57:54.590Z,4.72
2022-08-14T17:00:32.891Z,5.30
2022-08-14T17:03:12.030Z,5.63
2022-08-14T17:05:47.090Z,4.70
2022-08-14T17:08:32.532Z,4.45
2022-08-14T17:11:10.902Z,4.97
2022-08-14T17:13:57.728Z,4.88
2022-08-14T17:16:37.894Z,4.85
2022-08-14T17:19:09.802Z,4.90
2022-08-14T17:21:42.039Z,4.63
2022-08-14T17:24:57.337Z,4.88
2022-08-14T17:27:03.856Z,5.18
2022-08-14T17:29:52.027Z,4.70
2022-08-14T17:32:29.587Z,4.72
2022-08-14T17:35:16.491Z,4.45
2022-08-14T17:40:20.997Z,4.53
2022-08-14T17:43:02.013Z,4.20
2022-08-14T17:45:42.861Z,4.30
2022-08-14T17:49:13.873Z,4.35
2022-08-14T17:51:23.660Z,4.07
2022-08-14T17:54:02.668Z,4.30
2022-08-14T17:56:34.318Z,4.15
2022-08-14T17:59:07.343Z,4.10
2022-08-14T18:01:38.697Z,3.83
2022-08-14T18:04:24.803Z,4.18
2022-08-14T18:07:08.627Z,4.43
2022-08-14T18:09:57.010Z,4.35
2022-08-14T18:12:36.824Z,4.10
2022-08-14T18:15:16.464Z,4.53
2022-08-14T18:17:50.586Z,4.03
2022-08-14T18:21:42.449Z,4.18
2022-08-14T18:23:14.233Z,4.15
2022-08-14T18:25:48.573Z,4.47
2022-08-14T18:28:18.019Z,4.10
2022-08-14T18:31:21.337Z,3.70
2022-08-14T18:33:56.000Z,3.97
2022-08-14T18:40:02.467Z,4.05
2022-08-14T18:42:23.363Z,3.63
2022-08-14T18:44:52.685Z,3.38
2022-08-14T18:47:23.504Z,3.90
2022-08-14T18:50:00.919Z,3.87
2022-08-14T18:52:34.765Z,4.20
2022-08-14T18:55:21.241Z,3.90
2022-08-14T18:57:58.597Z,4.00
2022-08-14T19:00:33.815Z,4.07
2022-08-14T19:03:11.049Z,3.72
2022-08-14T19:05:47.896Z,3.90
2022-08-14T19:08:27.136Z,4.05
2022-08-14T19:11:04.104Z,4.32
2022-08-14T19:13:48.651Z,3.83
2022-08-14T19:16:26.294Z,4.07
2022-08-14T19:19:00.317Z,3.90
2022-08-14T19:21:34.928Z,3.80
2022-08-14T19:24:27.619Z,3.40
2022-08-14T19:27:19.569Z,3.78
2022-08-14T19:29:51.755Z,3.80
2022-08-14T19:32:41.045Z,4.38
2022-08-14T19:35:18.616Z,4.13
2022-08-14T19:37:54.169Z,3.75
2022-08-14T19:40:34.178Z,4.00
2022-08-14T19:43:06.692Z,3.92
2022-08-14T19:45:40.357Z,4.80
2022-08-14T19:48:14.586Z,4.30
2022-08-14T19:50:46.807Z,4.43
2022-08-14T19:53:17.588Z,4.53
2022-08-14T19:56:02.293Z,4.40
2022-08-14T19:58:57.744Z,4.75
2022-08-14T20:01:39.014Z,4.57
2022-08-14T20:04:44.798Z,4.20
2022-08-14T20:07:01.623Z,4.63
2022-08-14T20:11:08.344Z,4.57
2022-08-14T20:12:35.440Z,4.50
2022-08-14T20:15:12.969Z,4.88
2022-08-14T20:17:52.203Z,5.07
2022-08-14T20:20:31.936Z,5.30
2022-08-14T20:23:11.215Z,5.35
2022-08-14T20:25:45.417Z,5.28
2022-08-14T20:28:32.089Z,5.25
2022-08-14T20:31:15.901Z,5.47
2022-08-14T20:34:06.519Z,5.20
2022-08-14T20:36:40.980Z,5.10
2022-08-14T20:39:15.376Z,4.75
2022-08-14T20:41:51.531Z,4.28
2022-08-14T20:45:02.680Z,4.38
2022-08-14T20:47:48.061Z,4.10
2022-08-14T20:50:23.575Z,3.80
2022-08-14T20:53:00.350Z,4.43
2022-08-14T20:55:30.671Z,3.78
2022-08-14T20:58:10.078Z,4.07
2022-08-14T21:01:00.823Z,3.90
2022-08-14T21:03:56.266Z,3.50
2022-08-14T21:06:30.725Z,4.10
2022-08-14T21:09:19.097Z,4.07
2022-08-14T21:12:02.822Z,3.92
2022-08-14T21:14:30.742Z,4.20
2022-08-14T21:17:01.636Z,4.10
2022-08-14T21:19:30.222Z,3.72
2022-08-14T21:22:02.083Z,3.78
2022-08-14T21:24:39.191Z,3.60
2022-08-14T21:27:20.402Z,3.77
2022-08-14T21:29:55.451Z,3.53
2022-08-14T21:32:47.114Z,3.55
2022-08-14T21:35:22.685Z,4.40
2022-08-14T21:37:52.845Z,3.90
2022-08-14T21:40:40.982Z,3.80
2022-08-14T21:43:17.448Z,3.65
2022-08-14T21:45:53.309Z,3.35
2022-08-14T21:48:25.328Z,3.60
2022-08-14T21:51:01.100Z,3.50
2022-08-14T21:53:35.638Z,3.42
2022-08-14T21:56:23.648Z,3.80
2022-08-14T21:59:17.760Z,3.60
2022-08-14T22:02:00.196Z,3.67
2022-08-14T22:04:40.547Z,3.55
2022-08-14T22:07:16.740Z,3.30
2022-08-14T22:09:54.955Z,3.78
2022-08-14T22:12:45.459Z,3.80
2022-08-14T22:15:16.235Z,3.45
2022-08-14T22:17:44.678Z,3.38
2022-08-14T22:20:21.420Z,3.72
2022-08-14T22:22:55.983Z,3.60
2022-08-14T22:25:34.024Z,3.17
2022-08-14T22:28:05.908Z,3.60
2022-08-14T22:30:34.988Z,3.75
2022-08-14T22:33:02.794Z,4.18
2022-08-14T22:35:30.315Z,3.50
2022-08-14T22:38:30.574Z,3.60
2022-08-14T22:41:08.623Z,3.67
2022-08-14T22:43:37.108Z,3.30
2022-08-14T22:46:14.875Z,3.85
2022-08-14T22:48:49.527Z,3.60
2022-08-14T22:51:20.160Z,3.60
2022-08-14T22:53:51.688Z,3.67
2022-08-14T22:56:29.032Z,4.15
2022-08-14T22:58:59.029Z,3.53
2022-08-14T23:01:57.071Z,3.22
2022-08-14T23:04:34.721Z,3.20
2022-08-14T23:07:22.203Z,3.55
2022-08-14T23:09:57.742Z,3.53
2022-08-14T23:12:54.214Z,3.03
2022-08-14T23:15:24.634Z,3.30
2022-08-14T23:17:57.080Z,3.38
2022-08-14T23:20:29.734Z,3.45
2022-08-14T23:22:58.361Z,3.05
2022-08-14T23:25:57.782Z,3.08
2022-08-14T23:28:34.788Z,3.42
2022-08-14T23:31:12.848Z,3.10
2022-08-14T23:33:46.006Z,2.90
2022-08-14T23:36:32.314Z,3.35
2022-08-14T23:39:10.344Z,3.30
2022-08-14T23:41:46.427Z,3.30
2022-08-14T23:44:24.037Z,2.90
2022-08-14T23:46:57.134Z,2.95
2022-08-14T23:49:56.551Z,3.40
2022-08-14T23:52:55.681Z,3.10
2022-08-14T23:55:05.129Z,2.92
2022-08-14T23:57:32.777Z,2.70
